SEA weather

Seattle Tacoma International Airport
Seattle, Washington, United States

Public forecast

Using degrees Fahrenheit for public forecast. Weather courtesy of forecast.io.

METAR (pilot weather report)

Retrieved 2018/10/19 08:53 UTC (32 minutes ago):

KSEA 190853Z 16003KT 7SM SCT250 09/07 A3024 RMK AO2 SLP246 T00890072 53007

TAF (pilot weather forecast)

Retrieved 2018/10/19 06:22 UTC (3 hours ago):

TAF KSEA 190520Z 1906/2012 VRB04KT P6SM BKN250 FM191200 VRB02KT 4SM BR BKN250 TEMPO 1914/1918 1/4SM FG OVC002 FM192000 28003KT P6SM SCT250 FM200100 34004KT P6SM SCT250